Terminal Aerodrome Forecast
Issued by NWS Wilmington, OH

Current Version | Previous Version | Text Only | Print | Product List | Glossary Off
Versions: 1 2 3 4 5 6 7 8 9 10 11 12 13 14 15 16 17 18 19 20 21 22 23 24 25 26 27 28 29 30 31 32 33

000
FTUS41 KILN 201700 AAA
TAFCVG
TAF AMD
KCVG 201750Z 2018/2124 07006KT P6SM SCT020 BKN035
     FM210600 VRB02KT 2SM BR SCT020
     FM211300 06006KT P6SM SCT025=

USA.gov is the U.S. government's official web portal to all federal, state and local government web resources and services.